createdAt,value
2018-05-24T00:01:47.612Z,90.20
2018-05-24T00:04:15.093Z,90.50
2018-05-24T00:06:43.369Z,91.10
2018-05-24T00:09:11.625Z,91.40
2018-05-24T00:11:39.139Z,91.50
2018-05-24T00:14:06.626Z,91.10
2018-05-24T00:16:34.111Z,90.70
2018-05-24T00:19:02.381Z,90.70
2018-05-24T00:21:30.676Z,90.70
2018-05-24T00:23:58.206Z,90.70
2018-05-24T00:26:25.685Z,90.50
2018-05-24T00:28:53.928Z,90.40
2018-05-24T00:31:21.436Z,90.40
2018-05-24T00:33:48.929Z,90.30
2018-05-24T00:36:16.432Z,90.20
2018-05-24T00:38:44.697Z,90.20
2018-05-24T00:41:12.955Z,90.30
2018-05-24T00:43:40.453Z,90.20
2018-05-24T00:46:07.933Z,90.20
2018-05-24T00:48:35.447Z,90.20
2018-05-24T00:51:03.701Z,90.10
2018-05-24T00:53:31.192Z,90.10
2018-05-24T00:55:59.470Z,90.30
2018-05-24T00:58:27.731Z,90.30
2018-05-24T01:00:56.000Z,90.00
2018-05-24T01:03:23.495Z,90.00
2018-05-24T01:05:50.984Z,90.30
2018-05-24T01:08:18.492Z,90.30
2018-05-24T01:10:46.740Z,90.50
2018-05-24T01:13:15.031Z,90.30
2018-05-24T01:15:42.528Z,90.30
2018-05-24T01:18:10.031Z,90.30
2018-05-24T01:20:37.547Z,90.90
2018-05-24T01:23:05.044Z,90.90
2018-05-24T01:25:32.548Z,90.70
2018-05-24T01:28:00.046Z,90.90
2018-05-24T01:30:27.538Z,91.20
2018-05-24T01:32:56.555Z,91.40
2018-05-24T01:35:24.039Z,91.30
2018-05-24T01:37:51.536Z,91.50
2018-05-24T01:40:19.030Z,91.90
2018-05-24T01:42:46.532Z,91.50
2018-05-24T01:45:14.016Z,91.10
2018-05-24T01:47:41.510Z,92.10
2018-05-24T01:50:09.021Z,91.30
2018-05-24T01:52:36.510Z,91.50
2018-05-24T01:55:04.776Z,91.40
2018-05-24T01:57:33.039Z,91.20
2018-05-24T02:00:00.535Z,91.20
2018-05-24T02:02:28.038Z,91.40
2018-05-24T02:04:55.530Z,91.10
2018-05-24T02:07:23.816Z,90.90
2018-05-24T02:09:52.082Z,90.60
2018-05-24T02:12:20.346Z,90.80
2018-05-24T02:14:48.662Z,91.10
2018-05-24T02:17:16.162Z,91.00
2018-05-24T02:19:43.667Z,90.90
2018-05-24T02:22:11.160Z,90.90
2018-05-24T02:24:38.656Z,90.90
2018-05-24T02:27:06.162Z,90.90
2018-05-24T02:29:33.654Z,90.80
2018-05-24T02:32:01.153Z,90.80
2018-05-24T02:34:28.641Z,90.50
2018-05-24T02:36:56.117Z,90.70
2018-05-24T02:39:23.613Z,90.70
2018-05-24T02:41:51.864Z,90.80
2018-05-24T02:44:19.378Z,90.80
2018-05-24T02:46:46.966Z,90.90
2018-05-24T02:49:14.461Z,91.10
2018-05-24T02:51:42.759Z,91.00
2018-05-24T02:54:10.237Z,91.30
2018-05-24T02:56:37.761Z,90.90
2018-05-24T02:59:06.017Z,90.80
2018-05-24T03:01:33.525Z,90.70
2018-05-24T03:04:01.040Z,90.90
2018-05-24T03:06:28.529Z,90.90
2018-05-24T03:08:56.061Z,91.20
2018-05-24T03:11:24.337Z,92.00
2018-05-24T03:13:52.593Z,91.40
2018-05-24T03:16:20.100Z,91.40
2018-05-24T03:18:47.602Z,91.00
2018-05-24T03:21:15.105Z,91.00
2018-05-24T03:23:42.601Z,90.80
2018-05-24T03:26:10.099Z,90.60
2018-05-24T03:28:38.368Z,90.60
2018-05-24T03:31:05.859Z,90.60
2018-05-24T03:33:33.390Z,90.70
2018-05-24T03:36:00.899Z,90.70
2018-05-24T03:38:28.390Z,90.90
2018-05-24T03:40:55.901Z,91.10
2018-05-24T03:43:23.406Z,90.90
2018-05-24T03:45:50.924Z,90.90
2018-05-24T03:48:18.427Z,91.00
2018-05-24T03:50:45.927Z,91.00
2018-05-24T03:53:13.493Z,91.10
2018-05-24T03:55:40.985Z,91.00
2018-05-24T03:58:08.497Z,90.80
2018-05-24T04:00:48.809Z,91.10
2018-05-24T04:06:20.372Z,91.10
2018-05-24T04:08:47.876Z,91.00
2018-05-24T04:11:16.137Z,91.00
2018-05-24T04:13:43.627Z,91.00
2018-05-24T04:16:11.130Z,91.00
2018-05-24T04:18:38.613Z,91.00
2018-05-24T04:21:06.889Z,91.10
2018-05-24T04:23:34.379Z,91.10
2018-05-24T04:26:01.931Z,91.20
2018-05-24T04:28:30.193Z,91.30
2018-05-24T04:30:58.441Z,91.30
2018-05-24T04:33:25.962Z,91.30
2018-05-24T04:35:54.066Z,91.20
2018-05-24T04:38:21.543Z,91.10
2018-05-24T04:40:49.049Z,91.30
2018-05-24T04:43:16.546Z,91.70
2018-05-24T04:45:44.067Z,91.30
2018-05-24T04:48:11.578Z,91.20
2018-05-24T04:50:39.099Z,91.40
2018-05-24T04:53:06.605Z,91.20
2018-05-24T04:55:34.874Z,92.40
2018-05-24T04:58:02.392Z,91.90
2018-05-24T05:00:29.962Z,91.90
2018-05-24T05:02:57.458Z,91.40
2018-05-24T05:05:25.717Z,91.20
2018-05-24T05:07:53.215Z,91.20
2018-05-24T05:10:20.724Z,91.20
2018-05-24T05:12:48.219Z,91.00
2018-05-24T05:15:15.719Z,90.90
2018-05-24T05:17:43.217Z,90.80
2018-05-24T05:20:11.473Z,90.70
2018-05-24T05:22:38.992Z,90.60
2018-05-24T05:25:06.528Z,90.80
2018-05-24T05:27:34.834Z,90.60
2018-05-24T05:30:02.309Z,90.60
2018-05-24T05:32:29.833Z,90.60
2018-05-24T05:34:57.367Z,90.50
2018-05-24T05:37:25.672Z,90.60
2018-05-24T05:39:53.161Z,90.50
2018-05-24T05:42:20.683Z,90.70
2018-05-24T05:44:48.331Z,90.50
2018-05-24T05:47:15.770Z,90.50
2018-05-24T05:49:44.017Z,90.90
2018-05-24T05:52:11.574Z,90.90
2018-05-24T05:54:39.084Z,90.80
2018-05-24T05:57:07.348Z,91.10
2018-05-24T05:59:35.637Z,91.10
2018-05-24T06:02:03.913Z,91.10
2018-05-24T06:04:32.195Z,91.00
2018-05-24T06:06:59.728Z,91.00
2018-05-24T06:09:27.239Z,90.80
2018-05-24T06:11:54.761Z,90.70
2018-05-24T06:14:23.052Z,90.30
2018-05-24T06:16:50.557Z,90.20
2018-05-24T06:19:18.061Z,90.20
2018-05-24T06:21:45.555Z,90.00
2018-05-24T06:24:13.107Z,90.00
2018-05-24T06:26:40.620Z,90.00
2018-05-24T06:29:08.879Z,90.30
2018-05-24T06:31:36.392Z,90.30
2018-05-24T06:34:03.912Z,90.10
2018-05-24T06:36:32.210Z,90.20
2018-05-24T06:38:59.706Z,90.20
2018-05-24T06:41:27.250Z,90.10
2018-05-24T06:43:54.752Z,90.20
2018-05-24T06:46:22.259Z,90.00
2018-05-24T06:48:49.776Z,90.00
2018-05-24T06:51:17.284Z,90.00
2018-05-24T06:53:44.837Z,90.00
2018-05-24T06:56:12.357Z,90.10
2018-05-24T06:58:40.643Z,90.00
2018-05-24T07:01:08.227Z,90.00
2018-05-24T07:03:36.132Z,90.00
2018-05-24T07:06:04.817Z,90.10
2018-05-24T07:08:32.347Z,90.00
2018-05-24T07:10:59.889Z,89.60
2018-05-24T07:13:27.385Z,88.70
2018-05-24T07:15:55.668Z,88.80
2018-05-24T07:18:23.171Z,88.00
2018-05-24T07:20:51.437Z,88.10
2018-05-24T07:23:19.849Z,87.00
2018-05-24T07:25:47.358Z,86.90
2018-05-24T07:28:14.860Z,87.00
2018-05-24T07:30:42.379Z,87.40
2018-05-24T07:33:10.128Z,87.00
2018-05-24T07:35:39.119Z,87.40
2018-05-24T07:38:06.648Z,87.40
2018-05-24T07:40:34.143Z,86.90
2018-05-24T07:43:01.634Z,88.40
2018-05-24T07:45:29.903Z,88.90
2018-05-24T07:47:58.253Z,88.40
2018-05-24T07:50:25.779Z,88.30
2018-05-24T07:52:53.257Z,89.00
2018-05-24T07:55:20.764Z,88.60
2018-05-24T07:57:48.268Z,87.70
2018-05-24T08:00:15.771Z,86.80
2018-05-24T08:02:44.046Z,85.50
2018-05-24T08:05:12.293Z,85.60
2018-05-24T08:07:39.785Z,85.70
2018-05-24T08:10:08.062Z,86.40
2018-05-24T08:12:36.336Z,85.00
2018-05-24T08:15:04.615Z,83.00
2018-05-24T08:17:32.983Z,82.50
2018-05-24T08:20:01.259Z,83.00
2018-05-24T08:22:29.541Z,80.80
2018-05-24T08:24:57.052Z,80.90
2018-05-24T08:27:25.549Z,81.70
2018-05-24T08:29:53.049Z,82.20
2018-05-24T08:32:20.562Z,79.30
2018-05-24T08:34:48.093Z,79.30
2018-05-24T08:37:15.582Z,77.80
2018-05-24T08:39:43.115Z,80.60
2018-05-24T08:42:10.677Z,78.30
2018-05-24T08:44:38.191Z,76.50
2018-05-24T08:47:06.492Z,73.30
2018-05-24T08:49:33.977Z,73.00
2018-05-24T08:52:01.497Z,75.00
2018-05-24T08:54:28.990Z,72.20
2018-05-24T08:56:56.502Z,70.50
2018-05-24T08:59:24.786Z,66.70
2018-05-24T09:01:52.341Z,66.50
2018-05-24T09:04:19.874Z,66.30
2018-05-24T09:06:47.370Z,63.50
2018-05-24T09:09:14.885Z,60.40
2018-05-24T09:11:42.389Z,64.00
2018-05-24T09:14:09.931Z,61.70
2018-05-24T09:16:38.236Z,63.30
2018-05-24T09:19:05.766Z,63.20
2018-05-24T09:21:34.036Z,59.50
2018-05-24T09:24:02.311Z,63.20
2018-05-24T09:26:29.808Z,63.20
2018-05-24T09:28:57.337Z,62.70
2018-05-24T09:31:25.614Z,64.10
2018-05-24T09:33:53.234Z,64.00
2018-05-24T09:36:20.824Z,64.00
2018-05-24T09:38:48.317Z,62.50
2018-05-24T09:41:15.833Z,62.40
2018-05-24T09:43:44.123Z,60.70
2018-05-24T09:46:12.392Z,60.20
2018-05-24T09:48:40.682Z,56.70
2018-05-24T09:51:08.963Z,58.30
2018-05-24T09:53:36.473Z,58.40
2018-05-24T09:56:03.975Z,56.30
2018-05-24T09:58:32.254Z,56.80
2018-05-24T10:00:59.771Z,57.50
2018-05-24T10:03:27.291Z,58.40
2018-05-24T10:05:54.819Z,58.60
2018-05-24T10:08:23.090Z,58.90
2018-05-24T10:10:51.337Z,58.50
2018-05-24T10:13:18.831Z,58.40
2018-05-24T10:15:47.101Z,59.20
2018-05-24T10:18:15.380Z,60.40
2018-05-24T10:20:43.637Z,59.50
2018-05-24T10:23:11.902Z,61.00
2018-05-24T10:25:39.446Z,61.00
2018-05-24T10:28:07.076Z,61.20
2018-05-24T10:30:34.640Z,59.20
2018-05-24T10:33:02.285Z,61.40
2018-05-24T10:35:30.723Z,59.20
2018-05-24T10:37:59.145Z,60.70
2018-05-24T10:40:26.762Z,60.70
2018-05-24T10:42:55.315Z,58.90
2018-05-24T10:45:23.625Z,58.90
2018-05-24T10:47:52.618Z,54.90
2018-05-24T10:50:21.036Z,57.50
2018-05-24T10:52:48.534Z,57.40
2018-05-24T10:55:16.066Z,57.90
2018-05-24T10:57:43.561Z,56.10
2018-05-24T11:00:11.062Z,57.40
2018-05-24T11:02:39.398Z,57.60
2018-05-24T11:05:06.886Z,57.60
2018-05-24T11:07:35.156Z,55.80
2018-05-24T11:10:02.653Z,55.70
2018-05-24T11:12:30.144Z,55.50
2018-05-24T11:14:57.785Z,55.00
2018-05-24T11:17:25.269Z,53.80
2018-05-24T11:19:52.825Z,53.00
2018-05-24T11:22:20.327Z,51.50
2018-05-24T11:24:48.625Z,52.10
2018-05-24T11:27:16.125Z,52.00
2018-05-24T11:29:43.620Z,49.70
2018-05-24T11:32:11.897Z,50.70
2018-05-24T11:34:40.153Z,51.60
2018-05-24T11:37:08.412Z,50.60
2018-05-24T11:39:35.905Z,50.30
2018-05-24T11:42:04.165Z,51.30
2018-05-24T11:44:32.452Z,51.60
2018-05-24T11:46:59.977Z,51.60
2018-05-24T11:49:27.478Z,52.60
2018-05-24T11:51:55.068Z,52.00
2018-05-24T11:54:22.488Z,52.10
2018-05-24T11:56:50.011Z,53.20
2018-05-24T11:59:19.019Z,51.80
2018-05-24T12:01:46.519Z,51.80
2018-05-24T12:04:14.035Z,48.80
2018-05-24T12:06:43.029Z,48.80
2018-05-24T12:09:10.562Z,48.90
2018-05-24T12:11:38.058Z,47.30
2018-05-24T12:14:06.326Z,51.00
2018-05-24T12:16:34.607Z,52.10
2018-05-24T12:19:02.853Z,51.40
2018-05-24T12:21:30.369Z,51.30
2018-05-24T12:23:57.860Z,51.10
2018-05-24T12:26:25.354Z,52.30
2018-05-24T12:28:53.630Z,52.50
2018-05-24T12:31:21.884Z,53.20
2018-05-24T12:33:49.399Z,53.20
2018-05-24T12:36:16.897Z,53.50
2018-05-24T12:38:44.391Z,53.50
2018-05-24T12:41:12.667Z,54.90
2018-05-24T12:43:40.927Z,55.30
2018-05-24T12:46:09.292Z,57.00
2018-05-24T12:48:36.712Z,56.30
2018-05-24T12:51:04.207Z,55.90
2018-05-24T12:53:31.710Z,56.40
2018-05-24T12:55:59.277Z,56.80
2018-05-24T12:58:26.806Z,56.10
2018-05-24T13:00:55.073Z,57.10
2018-05-24T13:03:23.330Z,56.80
2018-05-24T13:05:50.836Z,56.80
2018-05-24T13:08:18.334Z,56.10
2018-05-24T13:10:45.856Z,56.70
2018-05-24T13:13:13.362Z,57.00
2018-05-24T13:15:40.855Z,57.30
2018-05-24T13:18:09.113Z,58.10
2018-05-24T13:20:36.631Z,58.10
2018-05-24T13:23:04.155Z,57.70
2018-05-24T13:25:32.405Z,57.60
2018-05-24T13:27:59.904Z,57.50
2018-05-24T13:30:27.398Z,57.50
2018-05-24T13:32:54.903Z,57.60
2018-05-24T13:35:22.420Z,58.00
2018-05-24T13:37:49.919Z,57.60
2018-05-24T13:40:18.171Z,58.30
2018-05-24T13:42:46.488Z,58.70
2018-05-24T13:45:13.995Z,58.60
2018-05-24T13:47:41.538Z,58.60
2018-05-24T13:50:09.029Z,58.90
2018-05-24T13:52:37.348Z,59.70
2018-05-24T13:55:04.799Z,59.10
2018-05-24T13:57:43.390Z,59.80
2018-05-24T14:00:11.670Z,62.20
2018-05-24T14:02:39.923Z,63.40
2018-05-24T14:05:07.409Z,63.40
2018-05-24T14:07:34.924Z,63.30
2018-05-24T14:10:02.421Z,63.90
2018-05-24T14:12:30.724Z,65.10
2018-05-24T14:14:58.225Z,65.10
2018-05-24T14:17:25.807Z,65.80
2018-05-24T14:19:53.311Z,66.20
2018-05-24T14:22:20.814Z,66.80
2018-05-24T14:24:48.342Z,65.30
2018-05-24T14:27:15.829Z,65.00
2018-05-24T14:29:43.316Z,59.80
2018-05-24T14:32:10.831Z,59.70
2018-05-24T14:34:38.308Z,58.00
2018-05-24T14:37:06.581Z,55.90
2018-05-24T14:39:34.080Z,55.80
2018-05-24T14:42:01.571Z,56.50
2018-05-24T14:44:29.098Z,56.40
2018-05-24T14:46:56.590Z,57.30
2018-05-24T14:49:24.106Z,56.70
2018-05-24T14:51:51.605Z,56.00
2018-05-24T14:56:51.875Z,56.10
2018-05-24T14:59:20.156Z,57.70
2018-05-24T15:01:48.460Z,57.90
2018-05-24T15:04:15.968Z,57.80
2018-05-24T15:06:44.985Z,59.40
2018-05-24T15:09:13.267Z,57.10
2018-05-24T15:11:41.541Z,56.90
2018-05-24T15:14:09.857Z,58.20
2018-05-24T15:16:37.370Z,58.10
2018-05-24T15:19:05.647Z,57.60
2018-05-24T15:21:33.945Z,57.10
2018-05-24T15:24:01.504Z,57.10
2018-05-24T15:26:29.042Z,57.20
2018-05-24T15:28:57.322Z,57.40
2018-05-24T15:31:25.581Z,57.80
2018-05-24T15:33:54.584Z,57.70
2018-05-24T15:36:24.672Z,58.20
2018-05-24T15:38:54.332Z,59.40
2018-05-24T15:41:23.299Z,58.60
2018-05-24T15:43:52.907Z,58.70
2018-05-24T15:46:21.299Z,59.20
2018-05-24T15:48:50.450Z,59.60
2018-05-24T15:51:17.997Z,59.60
2018-05-24T15:53:45.492Z,59.30
2018-05-24T15:56:14.499Z,59.90
2018-05-24T15:58:42.797Z,58.90
2018-05-24T16:01:10.310Z,58.90
2018-05-24T16:03:37.850Z,58.30
2018-05-24T16:06:05.362Z,58.70
2018-05-24T16:08:33.632Z,58.20
2018-05-24T16:11:01.942Z,58.20
2018-05-24T16:13:29.452Z,58.30
2018-05-24T16:15:57.065Z,58.30
2018-05-24T16:18:24.576Z,59.00
2018-05-24T16:20:52.888Z,57.50
2018-05-24T16:23:20.409Z,57.50
2018-05-24T16:25:48.679Z,57.60
2018-05-24T16:28:16.981Z,57.20
2018-05-24T16:30:47.192Z,57.10
2018-05-24T16:33:15.472Z,58.00
2018-05-24T16:35:43.772Z,57.90
2018-05-24T16:38:11.267Z,57.80
2018-05-24T16:40:38.797Z,58.40
2018-05-24T16:43:06.313Z,59.10
2018-05-24T16:45:34.593Z,60.90
2018-05-24T16:48:02.885Z,62.30
2018-05-24T16:50:31.151Z,64.60
2018-05-24T16:52:59.441Z,65.20
2018-05-24T16:55:26.952Z,65.00
2018-05-24T16:57:54.447Z,65.60
2018-05-24T17:00:22.723Z,67.20
2018-05-24T17:02:51.003Z,67.30
2018-05-24T17:05:19.286Z,67.60
2018-05-24T17:07:46.784Z,67.60
2018-05-24T17:10:14.292Z,68.30
2018-05-24T17:12:42.602Z,68.30
2018-05-24T17:15:10.111Z,68.30
2018-05-24T17:17:37.632Z,68.80
2018-05-24T17:20:05.151Z,67.40
2018-05-24T17:22:33.418Z,68.00
2018-05-24T17:25:01.709Z,68.40
2018-05-24T17:27:29.224Z,68.40
2018-05-24T17:29:58.266Z,69.10
2018-05-24T17:32:25.759Z,69.00
2018-05-24T17:34:53.256Z,69.10
2018-05-24T17:37:21.541Z,69.50
2018-05-24T17:39:49.822Z,69.90
2018-05-24T17:42:18.112Z,70.00
2018-05-24T17:44:45.608Z,70.00
2018-05-24T17:47:13.130Z,70.10
2018-05-24T17:49:40.643Z,70.50
2018-05-24T17:52:09.660Z,71.00
2018-05-24T17:54:37.983Z,70.90
2018-05-24T17:57:05.509Z,70.90
2018-05-24T17:59:33.031Z,71.20
2018-05-24T18:02:02.068Z,72.00
2018-05-24T18:04:29.609Z,72.00
2018-05-24T18:06:57.899Z,71.30
2018-05-24T18:09:25.426Z,71.30
2018-05-24T18:11:52.953Z,72.00
2018-05-24T18:14:20.492Z,73.30
2018-05-24T18:16:47.996Z,72.70
2018-05-24T18:19:15.532Z,72.80
2018-05-24T18:21:43.032Z,72.90
2018-05-24T18:24:11.292Z,73.40
2018-05-24T18:26:38.824Z,73.50
2018-05-24T18:29:06.333Z,72.60
2018-05-24T18:31:34.633Z,72.90
2018-05-24T18:34:02.133Z,72.80
2018-05-24T18:36:29.649Z,72.80
2018-05-24T18:38:57.177Z,73.10
2018-05-24T18:41:25.443Z,72.90
2018-05-24T18:43:53.736Z,73.30
2018-05-24T18:46:22.014Z,73.60
2018-05-24T18:48:50.302Z,74.20
2018-05-24T18:51:17.829Z,74.20
2018-05-24T18:53:45.334Z,74.50
2018-05-24T18:56:12.870Z,73.90
2018-05-24T18:58:41.142Z,73.90
2018-05-24T19:01:09.441Z,74.80
2018-05-24T19:03:36.963Z,74.90
2018-05-24T19:06:04.469Z,76.20
2018-05-24T19:08:32.012Z,75.50
2018-05-24T19:10:59.522Z,75.40
2018-05-24T19:13:27.061Z,75.50
2018-05-24T19:15:54.557Z,75.90
2018-05-24T19:18:22.074Z,75.10
2018-05-24T19:20:49.647Z,74.90
2018-05-24T19:23:17.137Z,75.60
2018-05-24T19:25:45.396Z,75.00
2018-05-24T19:28:12.934Z,75.00
2018-05-24T19:30:40.451Z,76.00
2018-05-24T19:33:07.973Z,75.50
2018-05-24T19:35:35.495Z,76.60
2018-05-24T19:38:03.009Z,76.00
2018-05-24T19:40:31.294Z,76.40
2018-05-24T19:43:01.669Z,75.40
2018-05-24T19:45:29.183Z,75.40
2018-05-24T19:47:56.685Z,76.70
2018-05-24T19:50:24.198Z,76.80
2018-05-24T19:52:51.731Z,77.30
2018-05-24T19:55:19.238Z,76.20
2018-05-24T19:57:46.769Z,77.70
2018-05-24T20:00:15.059Z,78.50
2018-05-24T20:02:42.574Z,78.40
2018-05-24T20:05:10.101Z,77.80
2018-05-24T20:07:37.613Z,77.90
2018-05-24T20:10:05.925Z,76.80
2018-05-24T20:12:33.436Z,76.80
2018-05-24T20:15:01.047Z,77.80
2018-05-24T20:17:28.582Z,76.60
2018-05-24T20:19:56.096Z,77.70
2018-05-24T20:22:24.002Z,76.90
2018-05-24T20:24:52.276Z,78.70
2018-05-24T20:27:20.544Z,78.20
2018-05-24T20:29:48.819Z,77.50
2018-05-24T20:32:17.149Z,76.20
2018-05-24T20:34:44.689Z,76.20
2018-05-24T20:37:12.191Z,75.70
2018-05-24T20:39:39.691Z,75.40
2018-05-24T20:42:07.217Z,75.10
2018-05-24T20:44:34.747Z,75.70
2018-05-24T20:47:02.262Z,76.10
2018-05-24T20:49:29.774Z,74.60
2018-05-24T20:51:57.289Z,74.10
2018-05-24T20:54:24.835Z,74.20
2018-05-24T20:56:52.332Z,74.30
2018-05-24T20:59:19.851Z,74.00
2018-05-24T21:01:48.134Z,74.50
2018-05-24T21:04:16.403Z,74.70
2018-05-24T21:06:43.933Z,74.70
2018-05-24T21:09:12.963Z,74.80
2018-05-24T21:11:40.493Z,74.80
2018-05-24T21:14:08.000Z,75.50
2018-05-24T21:16:35.514Z,76.00
2018-05-24T21:19:03.796Z,76.20
2018-05-24T21:21:32.111Z,77.30
2018-05-24T21:23:59.644Z,77.40
2018-05-24T21:26:27.925Z,76.80
2018-05-24T21:28:55.511Z,76.80
2018-05-24T21:31:23.045Z,76.70
2018-05-24T21:33:50.536Z,76.40
2018-05-24T21:36:18.060Z,76.70
2018-05-24T21:38:45.568Z,76.60
2018-05-24T21:41:13.072Z,77.00
2018-05-24T21:43:41.356Z,76.10
2018-05-24T21:46:08.860Z,76.10
2018-05-24T21:48:36.406Z,76.70
2018-05-24T21:51:03.912Z,76.80
2018-05-24T21:53:32.175Z,76.90
2018-05-24T21:56:00.024Z,76.80
2018-05-24T21:58:27.553Z,77.30
2018-05-24T22:00:55.079Z,77.60
2018-05-24T22:03:23.371Z,77.90
2018-05-24T22:05:50.897Z,77.80
2018-05-24T22:08:18.413Z,77.70
2018-05-24T22:10:45.922Z,78.20
2018-05-24T22:13:14.205Z,78.20
2018-05-24T22:15:42.515Z,78.80
2018-05-24T22:18:10.016Z,78.80
2018-05-24T22:20:37.537Z,78.60
2018-05-24T22:23:05.031Z,78.70
2018-05-24T22:25:32.563Z,79.00
2018-05-24T22:28:00.063Z,78.80
2018-05-24T22:30:28.340Z,81.30
2018-05-24T22:32:56.628Z,80.00
2018-05-24T22:35:24.908Z,80.10
2018-05-24T22:37:53.192Z,80.60
2018-05-24T22:40:20.685Z,80.60
2018-05-24T22:42:48.179Z,81.00
2018-05-24T22:45:15.688Z,80.30
2018-05-24T22:47:43.189Z,79.90
2018-05-24T22:50:10.806Z,80.30
2018-05-24T22:52:38.364Z,81.10
2018-05-24T22:55:05.857Z,80.10
2018-05-24T22:57:33.363Z,80.10
2018-05-24T23:00:00.864Z,80.10
2018-05-24T23:02:28.393Z,80.00
2018-05-24T23:04:55.907Z,81.00
2018-05-24T23:07:23.428Z,81.00
2018-05-24T23:09:50.949Z,81.00
2018-05-24T23:12:18.461Z,80.90
2018-05-24T23:14:45.997Z,80.90
2018-05-24T23:17:13.502Z,81.20
2018-05-24T23:19:41.013Z,80.90
2018-05-24T23:22:08.564Z,82.70
2018-05-24T23:24:36.057Z,82.60
2018-05-24T23:27:03.591Z,82.70
2018-05-24T23:29:31.097Z,82.40
2018-05-24T23:32:00.354Z,83.80
2018-05-24T23:34:27.881Z,83.00
2018-05-24T23:36:55.371Z,83.70
2018-05-24T23:39:22.891Z,84.30
2018-05-24T23:41:50.408Z,84.00
2018-05-24T23:44:17.921Z,83.70
2018-05-24T23:46:45.441Z,83.40
2018-05-24T23:49:12.947Z,83.40
2018-05-24T23:51:40.454Z,84.10
2018-05-24T23:54:07.969Z,83.60
2018-05-24T23:56:35.479Z,84.20
2018-05-24T23:59:02.993Z,83.50
